MUGM/NBW METAR and TAF weather

Enter ICAO airport designator
Station Type Date Time Source
MUGM METAR 2019/06/18 11:56 UTC NOAA

MUGM 181156Z 01007KT 9999 FEW030 BKN250 27/24 A3003 RMK SLP169 T02720239 10283 20261 53011


Station Type Date Time Source
MUGM Decoded METAR 2019/06/18 11:56 UTC NOAA

GUANTANAMO BAY, CUBA NAVAL, CU, Cuba (MUGM) 19-55N 075-12W 23M
Jun 18, 2019 - 07:56 AM EDT / 2019.06.18 1156 UTC
Wind: from the N (010 degrees) at 8 MPH (7 KT):0
Visibility: greater than 7 mile(s):0
Sky conditions: mostly cloudy
Temperature: 81.0 F (27.2 C)
Dew Point: 75.0 F (23.9 C)
Relative Humidity: 82%
Pressure (altimeter): 30.03 in. Hg (1016 hPa)
Pressure tendency: 0.03 inches (1.1 hPa) higher than three hours ago
ob: MUGM 181156Z 01007KT 9999 FEW030 BKN250 27/24 A3003 RMK SLP169 T02720239 10283 20261 53011
cycle: 12

Station Type Date Time Source
MUGM TAF 2019/06/18 07:19 UTC NOAA

TAF MUGM 1807/1907 VRB06KT 9999 FEW030 SCT090 QHN3001INS
BECMG 1815/1817 14014KT 9000 VCTS FEW030CB FEW130 SCT280 QHN2995INS T24/1809Z T32/1818Z FN00211

Example: see airport list